Huntingtown, MD

1:07 AM EDT on July 26, 2016 (GMT -0400)
APRSWXNET | | Change Station

Elev 118 ft 38.64 °N, 76.62 °W | Updated 26 minutes ago

Partly Cloudy
Partly Cloudy
76 °F
Feels Like 75 °F
N
Wind Variable Wind from SE
Gusts 0.0 mph

Today
High -- | Low -- °F
--% Chance of Precip.
Yesterday
High -- | Low -- °F
Precip. -- in
Pressure 29.92 in
Visibility 10.0 miles
Clouds Few 15000 ft
Heat Index 75 °F
Dew Point 75 °F
Humidity 98%
Rainfall in
Snow Depth Not available.
6:03 AM 8:22 PM
Waning Gibbous, 58% visible
METAR KADW 260458Z AUTO 06004KT 10SM FEW150 24/23 A2991 RMK AO2 LTG DSNT S SLP132 T02430232 403650236
Pressure 29.92 in
Visibility 10.0 miles
Clouds Few 15000 ft
Heat Index 75 °F
Dew Point 75 °F
Humidity 98%
Rainfall in
Snow Depth Not available.
6:03 AM 8:22 PM
Waning Gibbous, 58% visible
METAR KADW 260458Z AUTO 06004KT 10SM FEW150 24/23 A2991 RMK AO2 LTG DSNT S SLP132 T02430232 403650236

10-Day Weather Forecast

Almanac

Astronomy

Jul. 26, 2016 Rise Set
Actual Time
Civil Twilight
Nautical Twilight
Astronomical Twilight
Moon
Length of Visible Light
Length of Day
Tomorrow will be .
, % of the Moon is Illuminated

Today's Extremes

State Highs State Lows

Community

WunderPhotos

Upload Photos

1,927,538 photos uploaded!

WunderBlog® & News

Nearby

Air Quality

  Air Quality AQ Index Pollutant
Not available.

Snow Depth

Station Depth Elevation

Earthquake Activity

City Distance Mag. Time & Date
Minimum magnitude displayed is 2.5.

Coastal Water Temperatures

Place Temperature

Stations

Nearby Weather Stations

Station Location Temp. Windchill Dew Point Humidity Wind Precip. Elev Updated Type
                   

Watches & Warnings

There are currently no watches in effect.